Pearl Ace — HOOT — position and weather

sailwx.info

Track history (hours):
 
Tides and Currents Weather Stations Pressure Air Temp Water Temp Dewpoint Dewpoint Depression Visibility Wind Speed Wind Dir Waves Ship Positions

Pearl Ace

Last reported at 2017-Oct-19 15:27 UTC. Time now 2017-Oct-20 05:27 UTC.
Position N 37°59' W 009°54'.

Length 188 m; draft 8.7 m.

Type: Other ship. MMSI: 355754000.

Date/timePositionNaut miles runAvg speedWind from/ knotsBaromVisibWave heightAir tempDewpointWater temp
2017-Oct-19 15:27N 37°59' W 009°54'1116.2
2017-Oct-19 14:45N 38°10' W 009°57'615.5
2017-Oct-19 14:21N 38°16' W 009°59'615.5
2017-Oct-19 14:00N 38°22' W 010°00'815.5
2017-Oct-19 13:30N 38°29' W 010°03'815.3
2017-Oct-19 13:00N 38°37' W 010°05'815.5
2017-Oct-19 12:30N 38°44' W 010°06'815.3
2017-Oct-19 12:00N 38°52' W 010°06'815.3
2017-Oct-19 11:31N 38°59' W 010°06'815.6
2017-Oct-19 11:00N 39°07' W 010°06'916.0
2017-Oct-19 10:27N 39°16' W 010°06'54515.0
2017-Oct-17 22:00N 47°59' W 006°32'15214.8
2017-Oct-17 11:47N 49°52' W 003°58'415.5
2017-Oct-17 11:30N 49°55' W 003°54'815.9
2017-Oct-17 11:00N 50°01' W 003°46'816.6
2017-Oct-17 10:30N 50°07' W 003°37'816.6
2017-Oct-17 10:00N 50°14' W 003°29'815.7
2017-Oct-17 09:30N 50°21' W 003°23'5 9.3
2017-Oct-17 09:01N 50°25' W 003°25'612.6
2017-Oct-17 08:30N 50°26' W 003°15'714.8
2017-Oct-17 08:00N 50°25' W 003°03'714.1
2017-Oct-17 07:30N 50°25' W 002°52'713.3
2017-Oct-17 07:01N 50°25' W 002°42'612.4
2017-Oct-17 06:31N 50°25' W 002°32'611.6
2017-Oct-17 06:01N 50°25' W 002°23'3411.7
2017-Oct-17 03:06N 50°25' W 001°30'214.1
2017-Oct-17 02:56N 50°25' W 001°26'614.4
2017-Oct-17 02:30N 50°25' W 001°16'715.2
2017-Oct-17 02:00N 50°25' W 001°04'816.3
2017-Oct-17 01:30N 50°26' W 000°52'816.7
2017-Oct-17 01:00N 50°26' W 000°38'816.7
2017-Oct-17 00:30N 50°27' W 000°25'816.3
2017-Oct-17 00:00N 50°28' W 000°13'815.9
2017-Oct-16 23:30N 50°29' W 000°00'815.6
2017-Oct-16 23:00N 50°31' E 000°12'815.4
2017-Oct-16 22:30N 50°33' E 000°23'815.0
2017-Oct-16 22:00N 50°35' E 000°35'714.8
2017-Oct-16 21:30N 50°39' E 000°44'714.3
2017-Oct-16 21:00N 50°43' E 000°53'713.7
2017-Oct-16 20:30N 50°47' E 001°02'713.7
2017-Oct-16 20:00N 50°52' E 001°11'713.6
2017-Oct-16 19:30N 50°56' E 001°19'713.9
2017-Oct-16 19:01N 51°01' E 001°26'815.0
2017-Oct-16 18:30N 51°06' E 001°35'815.7
2017-Oct-16 18:01N 51°12' E 001°44'816.7
2017-Oct-16 17:30N 51°19' E 001°51'816.1
2017-Oct-16 17:01N 51°25' E 001°60'815.3
2017-Oct-16 16:30N 51°22' E 002°11'714.8
2017-Oct-16 16:00N 51°22' E 002°23'915.3
2017-Oct-16 15:24N 51°23' E 002°38'512.6
2017-Oct-16 15:00N 51°22' E 002°46'1212.4
2017-Oct-16 14:00N 51°24' E 003°05'611.2
2017-Oct-16 13:30N 51°21' E 003°12'1 1.5
2017-Oct-16 13:00N 51°20' E 003°13'0 0.3
2017-Oct-16 12:30N 51°20' E 003°13'1 2.3
2017-Oct-16 11:58N 51°19' E 003°13'0 0.0
2017-Oct-16 11:28N 51°19' E 003°13'0 0.0
2017-Oct-16 10:58N 51°19' E 003°13'0 0.0
2017-Oct-16 10:28N 51°19' E 003°13'0 0.0
2017-Oct-16 09:58N 51°19' E 003°13'0 0.0
2017-Oct-16 09:28N 51°19' E 003°13'0 0.0
2017-Oct-16 08:55N 51°19' E 003°13'0 0.0
2017-Oct-16 08:28N 51°19' E 003°13'0 0.0
2017-Oct-16 07:58N 51°19' E 003°13'0 0.0
2017-Oct-16 07:28N 51°19' E 003°13'0 0.0
2017-Oct-16 06:58N 51°19' E 003°13'0 0.0
2017-Oct-16 06:28N 51°19' E 003°13'0 0.0
2017-Oct-16 05:58N 51°19' E 003°13'0 0.0
2017-Oct-16 05:28N 51°19' E 003°13'0 0.0
2017-Oct-16 04:58N 51°19' E 003°13'0 0.0
2017-Oct-16 04:28N 51°19' E 003°13'0 0.0
2017-Oct-16 03:58N 51°19' E 003°13'0 0.0
2017-Oct-16 03:28N 51°19' E 003°13'0 0.0
2017-Oct-16 02:58N 51°19' E 003°13'0 0.0
2017-Oct-16 02:28N 51°19' E 003°13'0 0.0
2017-Oct-16 01:58N 51°19' E 003°13'0 0.0
2017-Oct-16 01:28N 51°19' E 003°13'0 0.0
2017-Oct-16 00:58N 51°19' E 003°13'0 0.0
2017-Oct-16 00:28N 51°19' E 003°13'0 0.0
2017-Oct-15 23:58N 51°19' E 003°13'0 0.0
2017-Oct-15 23:28N 51°19' E 003°13'0 0.0
2017-Oct-15 22:58N 51°19' E 003°13'0 0.0
2017-Oct-15 22:28N 51°19' E 003°13'0 0.0
2017-Oct-15 21:58N 51°19' E 003°13'0 0.0
2017-Oct-15 21:28N 51°19' E 003°13'0 0.0
2017-Oct-15 20:58N 51°19' E 003°13'0 0.0
2017-Oct-15 20:28N 51°19' E 003°13'0 0.0
2017-Oct-15 19:58N 51°19' E 003°13'0 0.0
2017-Oct-15 19:31N 51°19' E 003°13'1 2.7
2017-Oct-15 19:01N 51°20' E 003°13'0 0.0
2017-Oct-15 18:31N 51°20' E 003°13'1 1.5
2017-Oct-15 18:01N 51°21' E 003°12'3 7.0
2017-Oct-15 17:31N 51°23' E 003°09'611.1
2017-Oct-15 17:00N 51°23' E 002°60'612.2
2017-Oct-15 16:30N 51°22' E 002°50'510.2
2017-Oct-15 15:59N 51°22' E 002°42'4 8.4
2017-Oct-15 15:31N 51°21' E 002°36'3 5.7
2017-Oct-15 15:00N 51°22' E 002°31'5 5.4
2017-Oct-15 14:00N 51°27' E 002°33'4 7.6
2017-Oct-15 13:29N 51°31' E 002°36'5 7.4
2017-Oct-15 12:49N 51°36' E 002°38'4 7.0
2017-Oct-15 12:13N 51°40' E 002°39'2 7.0
2017-Oct-15 11:57N 51°41' E 002°39'3 7.0
2017-Oct-15 11:31N 51°44' E 002°37'4 7.0
2017-Oct-15 10:58N 51°48' E 002°35'3 6.8
2017-Oct-15 10:31N 51°51' E 002°33'3 6.9
2017-Oct-15 10:01N 51°54' E 002°30'3 6.6
2017-Oct-15 09:30N 51°57' E 002°28'3 6.5
2017-Oct-15 09:00N 51°60' E 002°27'3 6.6
2017-Oct-15 08:31N 52°03' E 002°27'3 6.0
2017-Oct-15 08:01N 52°06' E 002°25'3 6.9
2017-Oct-15 07:30N 52°09' E 002°24'611.9
2017-Oct-15 07:00N 52°15' E 002°20'816.5
2017-Oct-15 06:29N 52°23' E 002°15'1016.8
2017-Oct-15 05:54N 52°32' E 002°09'717.1
2017-Oct-15 05:30N 52°38' E 002°04'917.3
2017-Oct-15 05:00N 52°46' E 001°58'917.4
2017-Oct-15 04:31N 52°50' E 001°46'917.3
2017-Oct-15 04:01N 52°56' E 001°35'917.6
2017-Oct-15 03:31N 53°03' E 001°27'917.3
2017-Oct-15 03:01N 53°11' E 001°20'917.2
2017-Oct-15 02:31N 53°18' E 001°13'1017.2
2017-Oct-15 01:55N 53°27' E 001°03'1317.0
2017-Oct-15 01:09N 53°38' E 000°52'2117.2
2017-Oct-14 23:57N 53°55' E 000°32'817.1
2017-Oct-14 23:31N 54°01' E 000°24'917.1
2017-Oct-14 23:01N 54°08' E 000°15'816.9
2017-Oct-14 22:31N 54°15' E 000°07'816.7
2017-Oct-14 22:01N 54°22' W 000°02'816.5
2017-Oct-14 21:31N 54°28' W 000°10'816.4
2017-Oct-14 21:01N 54°34' W 000°19'916.3
2017-Oct-14 20:26N 54°40' W 000°32'716.4
2017-Oct-14 20:00N 54°44' W 000°42'816.5
2017-Oct-14 19:31N 54°49' W 000°54'816.8
2017-Oct-14 19:00N 54°54' W 001°05'816.0
2017-Oct-14 18:31N 54°58' W 001°17'5 9.9
2017-Oct-14 18:00N 55°01' W 001°24'2 3.9
2017-Oct-14 17:22N 54°59' W 001°28'0 0.0
2017-Oct-14 16:52N 54°59' W 001°28'0 0.0
2017-Oct-14 16:22N 54°59' W 001°28'0 0.0
2017-Oct-14 15:52N 54°59' W 001°28'0 0.0
2017-Oct-14 15:22N 54°59' W 001°28'0 0.0
2017-Oct-14 14:55N 54°59' W 001°28'0 0.0
2017-Oct-14 14:25N 54°59' W 001°28'0 0.0
2017-Oct-14 13:55N 54°59' W 001°28'0 0.0
2017-Oct-14 13:25N 54°59' W 001°28'0 0.0
2017-Oct-14 12:58N 54°59' W 001°28'0 0.0
2017-Oct-14 12:25N 54°59' W 001°28'0 0.0
2017-Oct-14 11:58N 54°59' W 001°28'0 0.0
2017-Oct-14 11:28N 54°59' W 001°28'0 0.0
2017-Oct-14 10:55N 54°59' W 001°28'0 0.0
2017-Oct-14 10:28N 54°59' W 001°28'0 0.0
2017-Oct-14 09:58N 54°59' W 001°28'0 0.0
2017-Oct-14 09:25N 54°59' W 001°28'0 0.0
2017-Oct-14 08:58N 54°59' W 001°28'0 0.0
2017-Oct-14 08:28N 54°59' W 001°28'0 0.0
2017-Oct-14 07:46N 54°59' W 001°28'0 0.0
2017-Oct-14 07:19N 54°59' W 001°28'0 0.0
2017-Oct-14 06:46N 54°59' W 001°28'0 0.0
2017-Oct-14 06:28N 54°59' W 001°28'0 0.0
2017-Oct-14 05:49N 54°59' W 001°28'0 0.0
2017-Oct-14 05:19N 54°59' W 001°28'0 0.0
2017-Oct-14 04:46N 54°59' W 001°28'0 0.0
2017-Oct-14 04:19N 54°59' W 001°28'0 0.0
2017-Oct-14 03:49N 54°59' W 001°28'0 0.0
2017-Oct-14 03:22N 54°59' W 001°28'0 0.0
2017-Oct-14 02:52N 54°59' W 001°28'0 0.0
2017-Oct-14 02:22N 54°59' W 001°28'0 0.0
2017-Oct-14 01:52N 54°59' W 001°28'0 0.0
2017-Oct-14 01:25N 54°59' W 001°28'0 0.0
2017-Oct-14 00:55N 54°59' W 001°28'0 0.0
2017-Oct-14 00:25N 54°59' W 001°28'0 0.0
2017-Oct-13 23:55N 54°59' W 001°28'0 0.0
2017-Oct-13 23:25N 54°59' W 001°28'0 0.0
2017-Oct-13 22:55N 54°59' W 001°28'0 0.0
2017-Oct-13 22:28N 54°59' W 001°28'0 0.0
2017-Oct-13 21:55N 54°59' W 001°28'0 0.0
2017-Oct-13 21:28N 54°59' W 001°28'0 0.0
2017-Oct-13 20:58N 54°59' W 001°28'0 0.0
2017-Oct-13 20:28N 54°59' W 001°28'0 0.0
2017-Oct-13 19:58N 54°59' W 001°28'0 0.0
2017-Oct-13 19:25N 54°59' W 001°28'0 0.0
2017-Oct-13 18:55N 54°59' W 001°28'0 0.0
2017-Oct-13 18:16N 54°59' W 001°28'0 0.0
2017-Oct-13 17:58N 54°59' W 001°28'0 0.0
2017-Oct-13 17:28N 54°59' W 001°28'0 0.0
2017-Oct-13 16:58N 54°59' W 001°28'0 0.0
2017-Oct-13 16:19N 54°59' W 001°28'0 0.0
2017-Oct-13 15:49N 54°59' W 001°28'0 0.0
2017-Oct-13 15:19N 54°59' W 001°28'0 0.0
2017-Oct-13 14:49N 54°59' W 001°28'0 0.0
2017-Oct-13 14:22N 54°59' W 001°28'0 0.0
2017-Oct-13 13:52N 54°59' W 001°28'0 0.0
2017-Oct-13 13:22N 54°59' W 001°28'0 0.0
2017-Oct-13 12:52N 54°59' W 001°28'0 0.0
2017-Oct-13 12:22N 54°59' W 001°28'0 0.0
2017-Oct-13 11:55N 54°59' W 001°28'0 0.0
2017-Oct-13 11:25N 54°59' W 001°28'0 0.0
2017-Oct-13 10:55N 54°59' W 001°28'0 0.0
2017-Oct-13 10:25N 54°59' W 001°28'0 0.0
2017-Oct-13 09:55N 54°59' W 001°28'0 0.0
2017-Oct-13 09:28N 54°59' W 001°28'0 0.0
2017-Oct-13 08:58N 54°59' W 001°28'0 0.0
2017-Oct-13 08:28N 54°59' W 001°28'0 0.0
2017-Oct-13 07:55N 54°59' W 001°28'0 0.0
2017-Oct-13 07:28N 54°59' W 001°28'0 0.0
2017-Oct-13 06:58N 54°59' W 001°28'0 0.0
2017-Oct-13 06:28N 54°59' W 001°28'0 0.0
2017-Oct-13 05:58N 54°59' W 001°28'0 0.0
2017-Oct-13 05:28N 54°59' W 001°28'0 0.0
2017-Oct-13 04:58N 54°59' W 001°28'0 0.0
2017-Oct-13 04:28N 54°59' W 001°28'0 0.0
2017-Oct-13 03:58N 54°59' W 001°28'0 0.0
2017-Oct-13 03:28N 54°59' W 001°28'0 0.0
2017-Oct-13 02:58N 54°59' W 001°28'0 0.0
2017-Oct-13 02:28N 54°59' W 001°28'0 0.0
2017-Oct-13 01:49N 54°59' W 001°28'0 0.0
2017-Oct-13 01:19N 54°59' W 001°28'0 0.0
2017-Oct-13 00:52N 54°59' W 001°28'0 0.0
2017-Oct-13 00:22N 54°59' W 001°28'0 0.0
2017-Oct-12 23:52N 54°59' W 001°28'0 0.0
2017-Oct-12 23:16N 54°59' W 001°28'0 0.0
2017-Oct-12 22:52N 54°59' W 001°28'0 0.0
2017-Oct-12 22:25N 54°59' W 001°28'0 0.0
2017-Oct-12 21:55N 54°59' W 001°28'0 0.0
2017-Oct-12 21:25N 54°59' W 001°28'0 0.0
2017-Oct-12 20:55N 54°59' W 001°28'0 0.0
2017-Oct-12 20:25N 54°59' W 001°28'0 0.0
2017-Oct-12 19:55N 54°59' W 001°28'0 0.0
2017-Oct-12 19:25N 54°59' W 001°28'0 0.0
2017-Oct-12 18:55N 54°59' W 001°28'0 0.0
2017-Oct-12 18:28N 54°59' W 001°28'0 0.0
2017-Oct-12 17:58N 54°59' W 001°28'0 0.0
2017-Oct-12 17:28N 54°59' W 001°28'0 0.0
2017-Oct-12 16:58N 54°59' W 001°28'0 0.0
2017-Oct-12 16:28N 54°59' W 001°28'0 0.0
2017-Oct-12 15:55N 54°59' W 001°28'0 0.0
2017-Oct-12 15:28N 54°59' W 001°28'0 0.0
2017-Oct-12 14:58N 54°59' W 001°28'0 0.0
2017-Oct-12 14:28N 54°59' W 001°28'0 0.0
2017-Oct-12 13:58N 54°59' W 001°28'0 0.0
2017-Oct-12 13:28N 54°59' W 001°28'0 0.0
2017-Oct-12 12:58N 54°59' W 001°28'0 0.0
2017-Oct-12 12:19N 54°59' W 001°28'0 0.0
2017-Oct-12 11:49N 54°59' W 001°28'0 0.0
2017-Oct-12 11:22N 54°59' W 001°28'0 0.0
2017-Oct-12 10:52N 54°59' W 001°28'0 0.0
2017-Oct-12 10:19N 54°59' W 001°28'0 0.0
2017-Oct-12 09:52N 54°59' W 001°28'0 0.0
2017-Oct-12 09:22N 54°59' W 001°28'0 0.0
2017-Oct-12 08:52N 54°59' W 001°28'0 0.0
2017-Oct-12 08:25N 54°59' W 001°28'0 0.0
2017-Oct-12 07:55N 54°59' W 001°28'0 0.0
2017-Oct-12 07:25N 54°59' W 001°28'0 0.0
2017-Oct-12 06:55N 54°59' W 001°28'0 0.0
2017-Oct-12 06:31N 54°59' W 001°28'1 1.4
2017-Oct-12 06:01N 54°60' W 001°27'3 6.5
2017-Oct-12 05:30N 55°01' W 001°22'3 6.8
2017-Oct-12 05:01N 55°00' W 001°17'611.1
2017-Oct-12 04:30N 54°57' W 001°09'816.5
2017-Oct-12 04:00N 54°52' W 000°58'917.0
2017-Oct-12 03:30N 54°46' W 000°46'1317.3
2017-Oct-12 02:44N 54°38' W 000°29'417.9
2017-Oct-12 02:30N 54°35' W 000°24'917.9
2017-Oct-12 02:01N 54°28' W 000°13'917.8
2017-Oct-12 01:31N 54°22' W 000°02'918.0
2017-Oct-12 01:01N 54°15' E 000°07'917.5
2017-Oct-12 00:30N 54°08' E 000°16'917.0
2017-Oct-12 00:01N 54°01' E 000°24'6115.8
2017-Oct-11 20:10N 53°10' E 001°20'1917.7
2017-Oct-11 19:05N 52°54' E 001°39'2018.0
2017-Oct-11 18:00N 52°41' E 002°02'85 4.5
2017-Oct-10 22:48N 51°28' E 000°49'412.4
2017-Oct-10 22:28N 51°29' E 000°56'612.0
2017-Oct-10 22:00N 51°31' E 001°04'611.8
2017-Oct-10 21:30N 51°34' E 001°13'510.8
2017-Oct-10 21:00N 51°36' E 001°20'611.3
2017-Oct-10 20:30N 51°33' E 001°27'612.3
2017-Oct-10 20:00N 51°27' E 001°31'3 5.7
2017-Oct-10 19:30N 51°28' E 001°35'510.8
2017-Oct-10 19:00N 51°29' E 001°43'611.2
2017-Oct-10 18:30N 51°29' E 001°52'510.6
2017-Oct-10 18:00N 51°27' E 002°00'815.1
2017-Oct-10 17:30N 51°22' E 002°09'713.3
2017-Oct-10 17:00N 51°20' E 002°19'912.7
2017-Oct-10 16:20N 51°23' E 002°33'511.7
2017-Oct-10 15:55N 51°23' E 002°40'3 7.5
2017-Oct-10 15:30N 51°22' E 002°45'611.1
2017-Oct-10 15:00N 51°23' E 002°54'1111.1
2017-Oct-10 14:00N 51°22' E 003°12'2 3.6
2017-Oct-10 13:30N 51°20' E 003°13'0 0.0
2017-Oct-10 13:00N 51°20' E 003°13'0 0.0
2017-Oct-10 12:30N 51°20' E 003°13'1 1.7
2017-Oct-10 11:59N 51°19' E 003°13'0 0.0
2017-Oct-10 11:29N 51°19' E 003°13'0 0.0
2017-Oct-10 10:59N 51°19' E 003°13'0 0.0
2017-Oct-10 10:29N 51°19' E 003°13'0 0.0
2017-Oct-10 09:59N 51°19' E 003°13'0 0.0
2017-Oct-10 09:29N 51°19' E 003°13'0 0.0
2017-Oct-10 08:59N 51°19' E 003°13'0 0.0
2017-Oct-10 08:29N 51°19' E 003°13'0 0.0
2017-Oct-10 07:59N 51°19' E 003°13'0 0.0
2017-Oct-10 07:29N 51°19' E 003°13'0 0.0
2017-Oct-10 06:59N 51°19' E 003°13'0 0.0
2017-Oct-10 06:29N 51°19' E 003°13'0 0.0
2017-Oct-10 05:59N 51°19' E 003°13'0 0.0
2017-Oct-10 05:29N 51°19' E 003°13'0 0.0
2017-Oct-10 04:59N 51°19' E 003°13'0 0.0
2017-Oct-10 04:29N 51°19' E 003°13'0 0.0
2017-Oct-10 03:59N 51°19' E 003°13'0 0.0
2017-Oct-10 03:29N 51°19' E 003°13'0 0.0
2017-Oct-10 02:59N 51°19' E 003°13'0 0.0
2017-Oct-10 02:29N 51°19' E 003°13'0 0.0
2017-Oct-10 01:59N 51°19' E 003°13'0 0.0
2017-Oct-10 01:29N 51°19' E 003°13'0 0.0
2017-Oct-10 00:59N 51°19' E 003°13'0 0.0
2017-Oct-10 00:29N 51°19' E 003°13'0 0.0
2017-Oct-09 23:59N 51°19' E 003°13'0 0.0
2017-Oct-09 23:29N 51°19' E 003°13'0 0.0
2017-Oct-09 22:59N 51°19' E 003°13'0 0.0
2017-Oct-09 22:29N 51°19' E 003°13'0 0.0
2017-Oct-09 22:00N 51°19' E 003°13'1 2.6
2017-Oct-09 21:30N 51°18' E 003°14'0 0.5
2017-Oct-09 20:59N 51°18' E 003°14'0 0.0
2017-Oct-09 20:29N 51°18' E 003°14'0 0.0
2017-Oct-09 19:59N 51°18' E 003°14'0 0.0
2017-Oct-09 19:29N 51°18' E 003°14'0 0.0
2017-Oct-09 18:59N 51°18' E 003°14'0 0.0
2017-Oct-09 18:29N 51°18' E 003°14'0 0.0
2017-Oct-09 17:59N 51°18' E 003°14'0 0.0
2017-Oct-09 17:29N 51°18' E 003°14'0 0.0
2017-Oct-09 16:59N 51°18' E 003°14'0 0.0
2017-Oct-09 16:29N 51°18' E 003°14'0 0.0
2017-Oct-09 15:59N 51°18' E 003°14'0 0.0
2017-Oct-09 15:29N 51°18' E 003°14'  
Track history (hours):
 
Tides and Currents Weather Stations Pressure Air Temp Water Temp Dewpoint Dewpoint Depression Visibility Wind Speed Wind Dir Waves Ship Positions

Pearl Ace

Last reported at 2017-Oct-19 15:27 UTC. Time now 2017-Oct-20 05:27 UTC.
Position N 37°59' W 009°54'.

Length 188 m; draft 8.7 m.

Type: Other ship. MMSI: 355754000.

Date/timePositionNaut miles runAvg speedWind from/ knotsBaromVisibWave heightAir tempDewpointWater temp
2017-Oct-19 15:27N 37°59' W 009°54'1116.2
2017-Oct-19 14:45N 38°10' W 009°57'615.5
2017-Oct-19 14:21N 38°16' W 009°59'615.5
2017-Oct-19 14:00N 38°22' W 010°00'815.5
2017-Oct-19 13:30N 38°29' W 010°03'815.3
2017-Oct-19 13:00N 38°37' W 010°05'815.5
2017-Oct-19 12:30N 38°44' W 010°06'815.3
2017-Oct-19 12:00N 38°52' W 010°06'815.3
2017-Oct-19 11:31N 38°59' W 010°06'815.6
2017-Oct-19 11:00N 39°07' W 010°06'916.0
2017-Oct-19 10:27N 39°16' W 010°06'54515.0
2017-Oct-17 22:00N 47°59' W 006°32'15214.8
2017-Oct-17 11:47N 49°52' W 003°58'415.5
2017-Oct-17 11:30N 49°55' W 003°54'815.9
2017-Oct-17 11:00N 50°01' W 003°46'816.6
2017-Oct-17 10:30N 50°07' W 003°37'816.6
2017-Oct-17 10:00N 50°14' W 003°29'815.7
2017-Oct-17 09:30N 50°21' W 003°23'5 9.3
2017-Oct-17 09:01N 50°25' W 003°25'612.6
2017-Oct-17 08:30N 50°26' W 003°15'714.8
2017-Oct-17 08:00N 50°25' W 003°03'714.1
2017-Oct-17 07:30N 50°25' W 002°52'713.3
2017-Oct-17 07:01N 50°25' W 002°42'612.4
2017-Oct-17 06:31N 50°25' W 002°32'611.6
2017-Oct-17 06:01N 50°25' W 002°23'3411.7
2017-Oct-17 03:06N 50°25' W 001°30'214.1
2017-Oct-17 02:56N 50°25' W 001°26'614.4
2017-Oct-17 02:30N 50°25' W 001°16'715.2
2017-Oct-17 02:00N 50°25' W 001°04'816.3
2017-Oct-17 01:30N 50°26' W 000°52'816.7
2017-Oct-17 01:00N 50°26' W 000°38'816.7
2017-Oct-17 00:30N 50°27' W 000°25'816.3
2017-Oct-17 00:00N 50°28' W 000°13'815.9
2017-Oct-16 23:30N 50°29' W 000°00'815.6
2017-Oct-16 23:00N 50°31' E 000°12'815.4
2017-Oct-16 22:30N 50°33' E 000°23'815.0
2017-Oct-16 22:00N 50°35' E 000°35'714.8
2017-Oct-16 21:30N 50°39' E 000°44'714.3
2017-Oct-16 21:00N 50°43' E 000°53'713.7
2017-Oct-16 20:30N 50°47' E 001°02'713.7
2017-Oct-16 20:00N 50°52' E 001°11'713.6
2017-Oct-16 19:30N 50°56' E 001°19'713.9
2017-Oct-16 19:01N 51°01' E 001°26'815.0
2017-Oct-16 18:30N 51°06' E 001°35'815.7
2017-Oct-16 18:01N 51°12' E 001°44'816.7
2017-Oct-16 17:30N 51°19' E 001°51'816.1
2017-Oct-16 17:01N 51°25' E 001°60'815.3
2017-Oct-16 16:30N 51°22' E 002°11'714.8
2017-Oct-16 16:00N 51°22' E 002°23'915.3
2017-Oct-16 15:24N 51°23' E 002°38'512.6
2017-Oct-16 15:00N 51°22' E 002°46'1212.4
2017-Oct-16 14:00N 51°24' E 003°05'611.2
2017-Oct-16 13:30N 51°21' E 003°12'1 1.5
2017-Oct-16 13:00N 51°20' E 003°13'0 0.3
2017-Oct-16 12:30N 51°20' E 003°13'1 2.3
2017-Oct-16 11:58N 51°19' E 003°13'0 0.0
2017-Oct-16 11:28N 51°19' E 003°13'0 0.0
2017-Oct-16 10:58N 51°19' E 003°13'0 0.0
2017-Oct-16 10:28N 51°19' E 003°13'0 0.0
2017-Oct-16 09:58N 51°19' E 003°13'0 0.0
2017-Oct-16 09:28N 51°19' E 003°13'0 0.0
2017-Oct-16 08:55N 51°19' E 003°13'0 0.0
2017-Oct-16 08:28N 51°19' E 003°13'0 0.0
2017-Oct-16 07:58N 51°19' E 003°13'0 0.0
2017-Oct-16 07:28N 51°19' E 003°13'0 0.0
2017-Oct-16 06:58N 51°19' E 003°13'0 0.0
2017-Oct-16 06:28N 51°19' E 003°13'0 0.0
2017-Oct-16 05:58N 51°19' E 003°13'0 0.0
2017-Oct-16 05:28N 51°19' E 003°13'0 0.0
2017-Oct-16 04:58N 51°19' E 003°13'0 0.0
2017-Oct-16 04:28N 51°19' E 003°13'0 0.0
2017-Oct-16 03:58N 51°19' E 003°13'0 0.0
2017-Oct-16 03:28N 51°19' E 003°13'0 0.0
2017-Oct-16 02:58N 51°19' E 003°13'0 0.0
2017-Oct-16 02:28N 51°19' E 003°13'0 0.0
2017-Oct-16 01:58N 51°19' E 003°13'0 0.0
2017-Oct-16 01:28N 51°19' E 003°13'0 0.0
2017-Oct-16 00:58N 51°19' E 003°13'0 0.0
2017-Oct-16 00:28N 51°19' E 003°13'0 0.0
2017-Oct-15 23:58N 51°19' E 003°13'0 0.0
2017-Oct-15 23:28N 51°19' E 003°13'0 0.0
2017-Oct-15 22:58N 51°19' E 003°13'0 0.0
2017-Oct-15 22:28N 51°19' E 003°13'0 0.0
2017-Oct-15 21:58N 51°19' E 003°13'0 0.0
2017-Oct-15 21:28N 51°19' E 003°13'0 0.0
2017-Oct-15 20:58N 51°19' E 003°13'0 0.0
2017-Oct-15 20:28N 51°19' E 003°13'0 0.0
2017-Oct-15 19:58N 51°19' E 003°13'0 0.0
2017-Oct-15 19:31N 51°19' E 003°13'1 2.7
2017-Oct-15 19:01N 51°20' E 003°13'0 0.0
2017-Oct-15 18:31N 51°20' E 003°13'1 1.5
2017-Oct-15 18:01N 51°21' E 003°12'3 7.0
2017-Oct-15 17:31N 51°23' E 003°09'611.1
2017-Oct-15 17:00N 51°23' E 002°60'612.2
2017-Oct-15 16:30N 51°22' E 002°50'510.2
2017-Oct-15 15:59N 51°22' E 002°42'4 8.4
2017-Oct-15 15:31N 51°21' E 002°36'3 5.7
2017-Oct-15 15:00N 51°22' E 002°31'5 5.4
2017-Oct-15 14:00N 51°27' E 002°33'4 7.6
2017-Oct-15 13:29N 51°31' E 002°36'5 7.4
2017-Oct-15 12:49N 51°36' E 002°38'4 7.0
2017-Oct-15 12:13N 51°40' E 002°39'2 7.0
2017-Oct-15 11:57N 51°41' E 002°39'3 7.0
2017-Oct-15 11:31N 51°44' E 002°37'4 7.0
2017-Oct-15 10:58N 51°48' E 002°35'3 6.8
2017-Oct-15 10:31N 51°51' E 002°33'3 6.9
2017-Oct-15 10:01N 51°54' E 002°30'3 6.6
2017-Oct-15 09:30N 51°57' E 002°28'3 6.5
2017-Oct-15 09:00N 51°60' E 002°27'3 6.6
2017-Oct-15 08:31N 52°03' E 002°27'3 6.0
2017-Oct-15 08:01N 52°06' E 002°25'3 6.9
2017-Oct-15 07:30N 52°09' E 002°24'611.9
2017-Oct-15 07:00N 52°15' E 002°20'816.5
2017-Oct-15 06:29N 52°23' E 002°15'1016.8
2017-Oct-15 05:54N 52°32' E 002°09'717.1
2017-Oct-15 05:30N 52°38' E 002°04'917.3
2017-Oct-15 05:00N 52°46' E 001°58'917.4
2017-Oct-15 04:31N 52°50' E 001°46'917.3
2017-Oct-15 04:01N 52°56' E 001°35'917.6
2017-Oct-15 03:31N 53°03' E 001°27'917.3
2017-Oct-15 03:01N 53°11' E 001°20'917.2
2017-Oct-15 02:31N 53°18' E 001°13'1017.2
2017-Oct-15 01:55N 53°27' E 001°03'1317.0
2017-Oct-15 01:09N 53°38' E 000°52'2117.2
2017-Oct-14 23:57N 53°55' E 000°32'817.1
2017-Oct-14 23:31N 54°01' E 000°24'917.1
2017-Oct-14 23:01N 54°08' E 000°15'816.9
2017-Oct-14 22:31N 54°15' E 000°07'816.7
2017-Oct-14 22:01N 54°22' W 000°02'816.5
2017-Oct-14 21:31N 54°28' W 000°10'816.4
2017-Oct-14 21:01N 54°34' W 000°19'916.3
2017-Oct-14 20:26N 54°40' W 000°32'716.4
2017-Oct-14 20:00N 54°44' W 000°42'816.5
2017-Oct-14 19:31N 54°49' W 000°54'816.8
2017-Oct-14 19:00N 54°54' W 001°05'816.0
2017-Oct-14 18:31N 54°58' W 001°17'5 9.9
2017-Oct-14 18:00N 55°01' W 001°24'2 3.9
2017-Oct-14 17:22N 54°59' W 001°28'0 0.0
2017-Oct-14 16:52N 54°59' W 001°28'0 0.0
2017-Oct-14 16:22N 54°59' W 001°28'0 0.0
2017-Oct-14 15:52N 54°59' W 001°28'0 0.0
2017-Oct-14 15:22N 54°59' W 001°28'0 0.0
2017-Oct-14 14:55N 54°59' W 001°28'0 0.0
2017-Oct-14 14:25N 54°59' W 001°28'0 0.0
2017-Oct-14 13:55N 54°59' W 001°28'0 0.0
2017-Oct-14 13:25N 54°59' W 001°28'0 0.0
2017-Oct-14 12:58N 54°59' W 001°28'0 0.0
2017-Oct-14 12:25N 54°59' W 001°28'0 0.0
2017-Oct-14 11:58N 54°59' W 001°28'0 0.0
2017-Oct-14 11:28N 54°59' W 001°28'0 0.0
2017-Oct-14 10:55N 54°59' W 001°28'0 0.0
2017-Oct-14 10:28N 54°59' W 001°28'0 0.0
2017-Oct-14 09:58N 54°59' W 001°28'0 0.0
2017-Oct-14 09:25N 54°59' W 001°28'0 0.0
2017-Oct-14 08:58N 54°59' W 001°28'0 0.0
2017-Oct-14 08:28N 54°59' W 001°28'0 0.0
2017-Oct-14 07:46N 54°59' W 001°28'0 0.0
2017-Oct-14 07:19N 54°59' W 001°28'0 0.0
2017-Oct-14 06:46N 54°59' W 001°28'0 0.0
2017-Oct-14 06:28N 54°59' W 001°28'0 0.0
2017-Oct-14 05:49N 54°59' W 001°28'0 0.0
2017-Oct-14 05:19N 54°59' W 001°28'0 0.0
2017-Oct-14 04:46N 54°59' W 001°28'0 0.0
2017-Oct-14 04:19N 54°59' W 001°28'0 0.0
2017-Oct-14 03:49N 54°59' W 001°28'0 0.0
2017-Oct-14 03:22N 54°59' W 001°28'0 0.0
2017-Oct-14 02:52N 54°59' W 001°28'0 0.0
2017-Oct-14 02:22N 54°59' W 001°28'0 0.0
2017-Oct-14 01:52N 54°59' W 001°28'0 0.0
2017-Oct-14 01:25N 54°59' W 001°28'0 0.0
2017-Oct-14 00:55N 54°59' W 001°28'0 0.0
2017-Oct-14 00:25N 54°59' W 001°28'0 0.0
2017-Oct-13 23:55N 54°59' W 001°28'0 0.0
2017-Oct-13 23:25N 54°59' W 001°28'0 0.0
2017-Oct-13 22:55N 54°59' W 001°28'0 0.0
2017-Oct-13 22:28N 54°59' W 001°28'0 0.0
2017-Oct-13 21:55N 54°59' W 001°28'0 0.0
2017-Oct-13 21:28N 54°59' W 001°28'0 0.0
2017-Oct-13 20:58N 54°59' W 001°28'0 0.0
2017-Oct-13 20:28N 54°59' W 001°28'0 0.0
2017-Oct-13 19:58N 54°59' W 001°28'0 0.0
2017-Oct-13 19:25N 54°59' W 001°28'0 0.0
2017-Oct-13 18:55N 54°59' W 001°28'0 0.0
2017-Oct-13 18:16N 54°59' W 001°28'0 0.0
2017-Oct-13 17:58N 54°59' W 001°28'0 0.0
2017-Oct-13 17:28N 54°59' W 001°28'0 0.0
2017-Oct-13 16:58N 54°59' W 001°28'0 0.0
2017-Oct-13 16:19N 54°59' W 001°28'0 0.0
2017-Oct-13 15:49N 54°59' W 001°28'0 0.0
2017-Oct-13 15:19N 54°59' W 001°28'0 0.0
2017-Oct-13 14:49N 54°59' W 001°28'0 0.0
2017-Oct-13 14:22N 54°59' W 001°28'0 0.0
2017-Oct-13 13:52N 54°59' W 001°28'0 0.0
2017-Oct-13 13:22N 54°59' W 001°28'0 0.0
2017-Oct-13 12:52N 54°59' W 001°28'0 0.0
2017-Oct-13 12:22N 54°59' W 001°28'0 0.0
2017-Oct-13 11:55N 54°59' W 001°28'0 0.0
2017-Oct-13 11:25N 54°59' W 001°28'0 0.0
2017-Oct-13 10:55N 54°59' W 001°28'0 0.0
2017-Oct-13 10:25N 54°59' W 001°28'0 0.0
2017-Oct-13 09:55N 54°59' W 001°28'0 0.0
2017-Oct-13 09:28N 54°59' W 001°28'0 0.0
2017-Oct-13 08:58N 54°59' W 001°28'0 0.0
2017-Oct-13 08:28N 54°59' W 001°28'0 0.0
2017-Oct-13 07:55N 54°59' W 001°28'0 0.0
2017-Oct-13 07:28N 54°59' W 001°28'0 0.0
2017-Oct-13 06:58N 54°59' W 001°28'0 0.0
2017-Oct-13 06:28N 54°59' W 001°28'0 0.0
2017-Oct-13 05:58N 54°59' W 001°28'0 0.0
2017-Oct-13 05:28N 54°59' W 001°28'0 0.0
2017-Oct-13 04:58N 54°59' W 001°28'0 0.0
2017-Oct-13 04:28N 54°59' W 001°28'0 0.0
2017-Oct-13 03:58N 54°59' W 001°28'0 0.0
2017-Oct-13 03:28N 54°59' W 001°28'0 0.0
2017-Oct-13 02:58N 54°59' W 001°28'0 0.0
2017-Oct-13 02:28N 54°59' W 001°28'0 0.0
2017-Oct-13 01:49N 54°59' W 001°28'0 0.0
2017-Oct-13 01:19N 54°59' W 001°28'0 0.0
2017-Oct-13 00:52N 54°59' W 001°28'0 0.0
2017-Oct-13 00:22N 54°59' W 001°28'0 0.0
2017-Oct-12 23:52N 54°59' W 001°28'0 0.0
2017-Oct-12 23:16N 54°59' W 001°28'0 0.0
2017-Oct-12 22:52N 54°59' W 001°28'0 0.0
2017-Oct-12 22:25N 54°59' W 001°28'0 0.0
2017-Oct-12 21:55N 54°59' W 001°28'0 0.0
2017-Oct-12 21:25N 54°59' W 001°28'0 0.0
2017-Oct-12 20:55N 54°59' W 001°28'0 0.0
2017-Oct-12 20:25N 54°59' W 001°28'0 0.0
2017-Oct-12 19:55N 54°59' W 001°28'0 0.0
2017-Oct-12 19:25N 54°59' W 001°28'0 0.0
2017-Oct-12 18:55N 54°59' W 001°28'0 0.0
2017-Oct-12 18:28N 54°59' W 001°28'0 0.0
2017-Oct-12 17:58N 54°59' W 001°28'0 0.0
2017-Oct-12 17:28N 54°59' W 001°28'0 0.0
2017-Oct-12 16:58N 54°59' W 001°28'0 0.0
2017-Oct-12 16:28N 54°59' W 001°28'0 0.0
2017-Oct-12 15:55N 54°59' W 001°28'0 0.0
2017-Oct-12 15:28N 54°59' W 001°28'0 0.0
2017-Oct-12 14:58N 54°59' W 001°28'0 0.0
2017-Oct-12 14:28N 54°59' W 001°28'0 0.0
2017-Oct-12 13:58N 54°59' W 001°28'0 0.0
2017-Oct-12 13:28N 54°59' W 001°28'0 0.0
2017-Oct-12 12:58N 54°59' W 001°28'0 0.0
2017-Oct-12 12:19N 54°59' W 001°28'0 0.0
2017-Oct-12 11:49N 54°59' W 001°28'0 0.0
2017-Oct-12 11:22N 54°59' W 001°28'0 0.0
2017-Oct-12 10:52N 54°59' W 001°28'0 0.0
2017-Oct-12 10:19N 54°59' W 001°28'0 0.0
2017-Oct-12 09:52N 54°59' W 001°28'0 0.0
2017-Oct-12 09:22N 54°59' W 001°28'0 0.0
2017-Oct-12 08:52N 54°59' W 001°28'0 0.0
2017-Oct-12 08:25N 54°59' W 001°28'0 0.0
2017-Oct-12 07:55N 54°59' W 001°28'0 0.0
2017-Oct-12 07:25N 54°59' W 001°28'0 0.0
2017-Oct-12 06:55N 54°59' W 001°28'0 0.0
2017-Oct-12 06:31N 54°59' W 001°28'1 1.4
2017-Oct-12 06:01N 54°60' W 001°27'3 6.5
2017-Oct-12 05:30N 55°01' W 001°22'3 6.8
2017-Oct-12 05:01N 55°00' W 001°17'611.1
2017-Oct-12 04:30N 54°57' W 001°09'816.5
2017-Oct-12 04:00N 54°52' W 000°58'917.0
2017-Oct-12 03:30N 54°46' W 000°46'1317.3
2017-Oct-12 02:44N 54°38' W 000°29'417.9
2017-Oct-12 02:30N 54°35' W 000°24'917.9
2017-Oct-12 02:01N 54°28' W 000°13'917.8
2017-Oct-12 01:31N 54°22' W 000°02'918.0
2017-Oct-12 01:01N 54°15' E 000°07'917.5
2017-Oct-12 00:30N 54°08' E 000°16'917.0
2017-Oct-12 00:01N 54°01' E 000°24'6115.8
2017-Oct-11 20:10N 53°10' E 001°20'1917.7
2017-Oct-11 19:05N 52°54' E 001°39'2018.0
2017-Oct-11 18:00N 52°41' E 002°02'85 4.5
2017-Oct-10 22:48N 51°28' E 000°49'412.4
2017-Oct-10 22:28N 51°29' E 000°56'612.0
2017-Oct-10 22:00N 51°31' E 001°04'611.8
2017-Oct-10 21:30N 51°34' E 001°13'510.8
2017-Oct-10 21:00N 51°36' E 001°20'611.3
2017-Oct-10 20:30N 51°33' E 001°27'612.3
2017-Oct-10 20:00N 51°27' E 001°31'3 5.7
2017-Oct-10 19:30N 51°28' E 001°35'510.8
2017-Oct-10 19:00N 51°29' E 001°43'611.2
2017-Oct-10 18:30N 51°29' E 001°52'510.6
2017-Oct-10 18:00N 51°27' E 002°00'815.1
2017-Oct-10 17:30N 51°22' E 002°09'713.3
2017-Oct-10 17:00N 51°20' E 002°19'912.7
2017-Oct-10 16:20N 51°23' E 002°33'511.7
2017-Oct-10 15:55N 51°23' E 002°40'3 7.5
2017-Oct-10 15:30N 51°22' E 002°45'611.1
2017-Oct-10 15:00N 51°23' E 002°54'1111.1
2017-Oct-10 14:00N 51°22' E 003°12'2 3.6
2017-Oct-10 13:30N 51°20' E 003°13'0 0.0
2017-Oct-10 13:00N 51°20' E 003°13'0 0.0
2017-Oct-10 12:30N 51°20' E 003°13'1 1.7
2017-Oct-10 11:59N 51°19' E 003°13'0 0.0
2017-Oct-10 11:29N 51°19' E 003°13'0 0.0
2017-Oct-10 10:59N 51°19' E 003°13'0 0.0
2017-Oct-10 10:29N 51°19' E 003°13'0 0.0
2017-Oct-10 09:59N 51°19' E 003°13'0 0.0
2017-Oct-10 09:29N 51°19' E 003°13'0 0.0
2017-Oct-10 08:59N 51°19' E 003°13'0 0.0
2017-Oct-10 08:29N 51°19' E 003°13'0 0.0
2017-Oct-10 07:59N 51°19' E 003°13'0 0.0
2017-Oct-10 07:29N 51°19' E 003°13'0 0.0
2017-Oct-10 06:59N 51°19' E 003°13'0 0.0
2017-Oct-10 06:29N 51°19' E 003°13'0 0.0
2017-Oct-10 05:59N 51°19' E 003°13'0 0.0
2017-Oct-10 05:29N 51°19' E 003°13'0 0.0
2017-Oct-10 04:59N 51°19' E 003°13'0 0.0
2017-Oct-10 04:29N 51°19' E 003°13'0 0.0
2017-Oct-10 03:59N 51°19' E 003°13'0 0.0
2017-Oct-10 03:29N 51°19' E 003°13'0 0.0
2017-Oct-10 02:59N 51°19' E 003°13'0 0.0
2017-Oct-10 02:29N 51°19' E 003°13'0 0.0
2017-Oct-10 01:59N 51°19' E 003°13'0 0.0
2017-Oct-10 01:29N 51°19' E 003°13'0 0.0
2017-Oct-10 00:59N 51°19' E 003°13'0 0.0
2017-Oct-10 00:29N 51°19' E 003°13'0 0.0
2017-Oct-09 23:59N 51°19' E 003°13'0 0.0
2017-Oct-09 23:29N 51°19' E 003°13'0 0.0
2017-Oct-09 22:59N 51°19' E 003°13'0 0.0
2017-Oct-09 22:29N 51°19' E 003°13'0 0.0
2017-Oct-09 22:00N 51°19' E 003°13'1 2.6
2017-Oct-09 21:30N 51°18' E 003°14'0 0.5
2017-Oct-09 20:59N 51°18' E 003°14'0 0.0
2017-Oct-09 20:29N 51°18' E 003°14'0 0.0
2017-Oct-09 19:59N 51°18' E 003°14'0 0.0
2017-Oct-09 19:29N 51°18' E 003°14'0 0.0
2017-Oct-09 18:59N 51°18' E 003°14'0 0.0
2017-Oct-09 18:29N 51°18' E 003°14'0 0.0
2017-Oct-09 17:59N 51°18' E 003°14'0 0.0
2017-Oct-09 17:29N 51°18' E 003°14'0 0.0
2017-Oct-09 16:59N 51°18' E 003°14'0 0.0
2017-Oct-09 16:29N 51°18' E 003°14'0 0.0
2017-Oct-09 15:59N 51°18' E 003°14'0 0.0
2017-Oct-09 15:29N 51°18' E 003°14'  

Dump ship's entire track history